createdAt,value
2022-08-21T00:04:48.249Z,4.20
2022-08-21T00:09:59.395Z,3.57
2022-08-21T00:15:03.609Z,4.30
2022-08-21T00:20:11.221Z,4.20
2022-08-21T00:25:15.220Z,3.93
2022-08-21T00:30:23.232Z,3.83
2022-08-21T00:35:30.280Z,3.80
2022-08-21T00:40:37.051Z,3.60
2022-08-21T00:45:41.765Z,3.47
2022-08-21T00:50:48.411Z,3.80
2022-08-21T00:55:52.692Z,4.20
2022-08-21T01:01:06.791Z,3.70
2022-08-21T01:06:11.264Z,3.30
2022-08-21T01:11:14.023Z,4.40
2022-08-21T01:16:22.590Z,3.40
2022-08-21T01:21:28.968Z,4.40
2022-08-21T01:26:35.418Z,4.40
2022-08-21T01:31:38.338Z,4.67
2022-08-21T01:36:42.388Z,4.50
2022-08-21T01:41:45.544Z,4.17
2022-08-21T01:46:49.053Z,4.73
2022-08-21T01:51:53.129Z,4.00
2022-08-21T01:56:56.821Z,4.00
2022-08-21T02:01:59.517Z,3.87
2022-08-21T02:07:04.623Z,4.27
2022-08-21T02:12:11.647Z,3.87
2022-08-21T02:17:15.053Z,4.17
2022-08-21T02:22:19.127Z,4.50
2022-08-21T02:27:24.658Z,3.80
2022-08-21T02:32:30.039Z,3.73
2022-08-21T02:37:34.167Z,4.13
2022-08-21T02:42:37.210Z,4.07
2022-08-21T02:47:41.349Z,4.77
2022-08-21T02:52:47.710Z,4.27
2022-08-21T02:57:55.252Z,4.07
2022-08-21T03:02:59.425Z,3.70
2022-08-21T03:08:05.131Z,4.00
2022-08-21T03:13:07.919Z,4.40
2022-08-21T03:18:14.682Z,4.70
2022-08-21T03:23:19.730Z,4.70
2022-08-21T03:28:23.611Z,4.50
2022-08-21T03:33:28.467Z,4.60
2022-08-21T03:38:34.036Z,4.77
2022-08-21T03:43:37.075Z,5.57
2022-08-21T03:48:41.899Z,5.67
2022-08-21T03:53:46.704Z,4.93
2022-08-21T03:58:49.445Z,5.47
2022-08-21T04:03:52.179Z,5.63
2022-08-21T04:08:56.392Z,5.70
2022-08-21T04:13:59.456Z,5.40
2022-08-21T04:19:02.599Z,6.60
2022-08-21T04:24:08.242Z,5.40
2022-08-21T04:29:10.942Z,5.77
2022-08-21T04:34:14.402Z,4.93
2022-08-21T04:39:18.526Z,6.40
2022-08-21T04:44:21.984Z,6.20
2022-08-21T04:49:24.738Z,5.53
2022-08-21T04:54:28.860Z,5.83
2022-08-21T04:59:35.085Z,6.13
2022-08-21T05:04:44.362Z,6.17
2022-08-21T05:09:48.601Z,7.53
2022-08-21T05:14:51.367Z,7.13
2022-08-21T05:19:54.213Z,7.17
2022-08-21T05:24:59.227Z,7.23
2022-08-21T05:30:02.780Z,7.80
2022-08-21T05:35:07.326Z,7.70
2022-08-21T05:40:22.587Z,8.87
2022-08-21T05:45:42.948Z,7.40
2022-08-21T05:50:50.200Z,7.03
2022-08-21T05:55:56.917Z,7.10
2022-08-21T06:00:59.622Z,6.67
2022-08-21T06:06:04.265Z,7.60
2022-08-21T06:11:10.609Z,7.47
2022-08-21T06:16:15.787Z,7.07
2022-08-21T06:21:19.157Z,6.40
2022-08-21T06:26:23.690Z,12.43
2022-08-21T06:31:28.953Z,6.37
2022-08-21T06:36:31.601Z,5.53
2022-08-21T06:41:39.046Z,5.53
2022-08-21T06:46:41.996Z,5.80
2022-08-21T06:51:47.510Z,6.27
2022-08-21T06:56:51.832Z,4.40
2022-08-21T07:01:54.501Z,5.10
2022-08-21T07:06:57.301Z,5.40
2022-08-21T07:12:01.658Z,4.27
2022-08-21T07:17:04.859Z,3.73
2022-08-21T07:22:08.756Z,3.43
2022-08-21T07:27:17.717Z,3.40
2022-08-21T07:32:22.137Z,3.57
2022-08-21T07:37:25.996Z,3.50
2022-08-21T07:42:30.887Z,3.57
2022-08-21T07:47:42.491Z,3.53
2022-08-21T07:52:49.468Z,2.80
2022-08-21T07:57:53.682Z,2.80
2022-08-21T08:02:57.692Z,2.37
2022-08-21T08:08:07.409Z,2.70
2022-08-21T08:13:11.747Z,2.00
2022-08-21T08:18:14.980Z,2.10
2022-08-21T08:23:17.692Z,2.03
2022-08-21T08:28:25.076Z,2.10
2022-08-21T08:33:28.367Z,2.00
2022-08-21T08:38:31.558Z,2.50
2022-08-21T08:43:39.559Z,1.93
2022-08-21T08:48:53.388Z,2.23
2022-08-21T08:54:02.321Z,2.10
2022-08-21T08:59:13.943Z,2.10
2022-08-21T09:04:24.760Z,2.20
2022-08-21T09:09:35.978Z,2.60
2022-08-21T09:14:54.591Z,2.33
2022-08-21T09:20:11.963Z,2.67
2022-08-21T09:25:24.310Z,2.30
2022-08-21T09:30:31.779Z,2.40
2022-08-21T09:35:36.283Z,2.60
2022-08-21T09:40:44.409Z,2.50
2022-08-21T09:45:50.556Z,2.33
2022-08-21T09:50:54.976Z,2.70
2022-08-21T09:56:17.946Z,2.53
2022-08-21T10:01:27.527Z,2.67
2022-08-21T10:06:30.891Z,2.90
2022-08-21T10:11:35.339Z,2.40
2022-08-21T10:16:49.123Z,1.73
2022-08-21T10:22:02.512Z,1.80
2022-08-21T10:27:16.520Z,2.17
2022-08-21T10:32:40.305Z,2.13
2022-08-21T10:38:03.255Z,1.70
2022-08-21T10:43:21.429Z,2.03
2022-08-21T10:48:31.919Z,1.83
2022-08-21T10:53:57.605Z,1.60
2022-08-21T10:59:26.574Z,1.60
2022-08-21T11:04:49.011Z,1.40
2022-08-21T11:09:54.094Z,1.50
2022-08-21T11:15:05.805Z,2.07
2022-08-21T11:20:15.642Z,1.70
2022-08-21T11:25:24.892Z,1.83
2022-08-21T11:30:43.215Z,1.50
2022-08-21T11:35:53.381Z,1.80
2022-08-21T11:41:10.402Z,1.90
2022-08-21T11:46:25.621Z,1.93
2022-08-21T11:51:38.594Z,1.60
2022-08-21T11:56:47.627Z,1.90
2022-08-21T12:01:52.612Z,1.53
2022-08-21T12:06:57.688Z,1.70
2022-08-21T12:12:07.145Z,1.50
2022-08-21T12:17:20.426Z,1.80
2022-08-21T12:22:39.096Z,1.60
2022-08-21T12:27:50.096Z,1.37
2022-08-21T12:32:59.647Z,1.60
2022-08-21T12:38:11.705Z,1.63
2022-08-21T12:43:19.147Z,6.60
2022-08-21T12:48:27.176Z,1.27
2022-08-21T12:53:35.284Z,1.60
2022-08-21T12:58:38.360Z,1.40
2022-08-21T13:03:43.345Z,1.33
2022-08-21T13:08:49.872Z,1.70
2022-08-21T13:13:53.761Z,1.87
2022-08-21T13:19:01.281Z,1.60
2022-08-21T13:24:41.402Z,1.70
2022-08-21T13:29:42.047Z,1.90
2022-08-21T13:34:54.097Z,1.80
2022-08-21T13:39:59.142Z,1.60
2022-08-21T13:45:02.966Z,1.47
2022-08-21T13:50:08.650Z,1.60
2022-08-21T13:55:19.706Z,1.53
2022-08-21T14:00:29.996Z,1.73
2022-08-21T14:05:35.435Z,1.40
2022-08-21T14:10:45.742Z,1.53
2022-08-21T14:15:58.047Z,1.70
2022-08-21T14:21:08.522Z,1.63
2022-08-21T14:26:13.184Z,2.00
2022-08-21T14:31:18.520Z,2.23
2022-08-21T14:36:22.785Z,1.57
2022-08-21T14:41:33.259Z,1.63
2022-08-21T14:46:45.772Z,2.30
2022-08-21T14:52:00.198Z,1.40
2022-08-21T14:57:09.704Z,4.30
2022-08-21T15:02:15.293Z,2.17
2022-08-21T15:07:18.907Z,1.70
2022-08-21T15:12:23.077Z,1.50
2022-08-21T15:17:26.492Z,1.73
2022-08-21T15:22:29.373Z,1.60
2022-08-21T15:27:33.411Z,1.90
2022-08-21T15:32:36.103Z,1.70
2022-08-21T15:37:39.001Z,1.87
2022-08-21T15:42:44.797Z,1.60
2022-08-21T15:47:47.815Z,1.57
2022-08-21T15:52:52.789Z,1.60
2022-08-21T15:58:05.293Z,1.97
2022-08-21T16:03:12.715Z,1.90
2022-08-21T16:08:15.493Z,1.80
2022-08-21T16:13:25.625Z,1.40
2022-08-21T16:18:28.723Z,1.47
2022-08-21T16:23:31.548Z,1.40
2022-08-21T16:28:38.296Z,2.00
2022-08-21T16:33:45.032Z,2.00
2022-08-21T16:38:48.644Z,1.80
2022-08-21T16:43:53.138Z,2.20
2022-08-21T16:48:56.424Z,2.10
2022-08-21T16:54:00.038Z,1.77
2022-08-21T16:59:05.955Z,2.40
2022-08-21T17:04:08.791Z,2.57
2022-08-21T17:09:12.408Z,2.00
2022-08-21T17:14:20.574Z,2.13
2022-08-21T17:19:23.416Z,2.10
2022-08-21T17:24:26.537Z,1.87
2022-08-21T17:29:38.672Z,2.10
2022-08-21T17:34:41.760Z,1.97
2022-08-21T17:39:44.591Z,2.03
2022-08-21T17:44:48.984Z,2.20
2022-08-21T17:49:52.168Z,1.80
2022-08-21T17:54:55.189Z,1.90
2022-08-21T17:59:59.476Z,2.60
2022-08-21T18:05:29.634Z,2.50
2022-08-21T18:10:33.799Z,2.47
2022-08-21T18:15:42.704Z,2.80
2022-08-21T18:20:45.823Z,2.20
2022-08-21T18:25:57.559Z,2.10
2022-08-21T18:31:02.197Z,2.53
2022-08-21T18:36:05.601Z,2.37
2022-08-21T18:41:10.409Z,2.87
2022-08-21T18:46:16.185Z,1.97
2022-08-21T18:51:19.268Z,2.90
2022-08-21T18:56:22.737Z,2.33
2022-08-21T19:01:30.372Z,2.30
2022-08-21T19:06:36.112Z,3.10
2022-08-21T19:11:44.148Z,3.17
2022-08-21T19:16:50.006Z,3.00
2022-08-21T19:22:10.961Z,2.40
2022-08-21T19:27:23.148Z,2.20
2022-08-21T19:32:32.095Z,2.60
2022-08-21T19:37:37.429Z,2.40
2022-08-21T19:42:43.895Z,2.70
2022-08-21T19:47:50.816Z,2.00
2022-08-21T19:52:54.373Z,2.17
2022-08-21T19:58:00.197Z,2.27
2022-08-21T20:03:07.984Z,2.43
2022-08-21T20:08:20.057Z,2.37
2022-08-21T20:13:23.977Z,2.20
2022-08-21T20:18:29.941Z,2.33
2022-08-21T20:23:35.012Z,1.80
2022-08-21T20:34:03.120Z,2.00
2022-08-21T20:39:09.329Z,2.37
2022-08-21T20:44:15.783Z,2.43
2022-08-21T20:49:25.927Z,3.10
2022-08-21T20:54:36.102Z,2.40
2022-08-21T20:59:46.117Z,1.80
2022-08-21T21:04:58.242Z,2.47
2022-08-21T21:10:05.803Z,2.80
2022-08-21T21:15:14.000Z,2.20
2022-08-21T21:20:27.125Z,2.87
2022-08-21T21:25:40.069Z,2.13
2022-08-21T21:30:55.597Z,2.20
2022-08-21T21:36:14.981Z,2.53
2022-08-21T21:41:28.537Z,1.90
2022-08-21T21:46:38.588Z,2.50
2022-08-21T21:52:00.149Z,2.27
2022-08-21T21:57:12.651Z,2.80
2022-08-21T22:02:31.804Z,2.97
2022-08-21T22:07:45.223Z,2.47
2022-08-21T22:13:09.945Z,2.57
2022-08-21T22:18:23.613Z,2.77
2022-08-21T22:23:33.061Z,2.63
2022-08-21T22:28:47.470Z,2.10
2022-08-21T22:34:03.568Z,2.73
2022-08-21T22:39:19.512Z,3.30
2022-08-21T22:49:52.381Z,3.13
2022-08-21T22:55:01.084Z,2.87
2022-08-21T23:00:16.789Z,3.07
2022-08-21T23:05:25.070Z,2.90
2022-08-21T23:10:31.474Z,3.33
2022-08-21T23:15:41.715Z,2.97
2022-08-21T23:20:56.216Z,2.67
2022-08-21T23:26:22.685Z,3.00
2022-08-21T23:31:32.623Z,2.90
2022-08-21T23:37:07.334Z,2.63
2022-08-21T23:42:26.132Z,2.90
2022-08-21T23:47:40.789Z,2.50
2022-08-21T23:53:00.485Z,3.20
2022-08-21T23:58:20.860Z,2.90
